Terminal Aerodrome Forecast
Issued by NWS

Home | Current Version | Previous Version | Text Only | Print | Product List | Glossary On
Versions: 1 2 3 4 5 6 7 8 9 10 11 12 13 14 15 16
853
FTUS43 KAPX 312320
TAFPLN
TAF
KPLN 312320Z 0100/0124 11006KT P6SM SCT250
     FM010800 13008KT P6SM SCT200 WS020/14035KT
     FM011200 13009KT P6SM VCSH BKN100
     FM011500 14009KT P6SM VCSH BKN060
     FM011800 14009KT P6SM SHRA BKN045=

USA.gov is the U.S. government's official web portal to all federal, state and local government web resources and services.